createdAt,value
2023-05-09T00:00:15.958Z,3.01
2023-05-09T00:01:42.769Z,3.00
2023-05-09T00:02:50.315Z,2.98
2023-05-09T00:03:57.321Z,2.99
2023-05-09T00:05:04.652Z,2.80
2023-05-09T00:06:11.310Z,2.81
2023-05-09T00:07:18.085Z,2.93
2023-05-09T00:08:24.629Z,2.78
2023-05-09T00:09:31.912Z,2.78
2023-05-09T00:10:38.860Z,2.78
2023-05-09T00:11:45.824Z,2.90
2023-05-09T00:12:52.721Z,2.90
2023-05-09T00:13:59.734Z,2.96
2023-05-09T00:15:09.497Z,2.87
2023-05-09T00:16:16.961Z,2.94
2023-05-09T00:17:25.772Z,3.01
2023-05-09T00:18:32.546Z,3.09
2023-05-09T00:19:40.299Z,2.89
2023-05-09T00:20:47.796Z,2.96
2023-05-09T00:21:54.530Z,2.93
2023-05-09T00:23:02.003Z,2.86
2023-05-09T00:24:10.610Z,2.89
2023-05-09T00:25:19.074Z,2.92
2023-05-09T00:26:26.496Z,2.88
2023-05-09T00:27:36.044Z,2.92
2023-05-09T00:28:42.920Z,2.89
2023-05-09T00:29:49.601Z,2.97
2023-05-09T00:30:56.405Z,3.03
2023-05-09T00:32:04.146Z,2.86
2023-05-09T00:33:11.173Z,2.83
2023-05-09T00:34:18.324Z,2.80
2023-05-09T00:35:25.550Z,2.77
2023-05-09T00:36:33.412Z,2.86
2023-05-09T00:37:40.533Z,2.77
2023-05-09T00:38:47.389Z,2.72
2023-05-09T00:39:54.562Z,2.84
2023-05-09T00:41:01.460Z,2.86
2023-05-09T00:42:08.897Z,2.97
2023-05-09T00:43:15.953Z,2.94
2023-05-09T00:44:22.906Z,2.95
2023-05-09T00:45:30.936Z,2.81
2023-05-09T00:46:37.819Z,2.88
2023-05-09T00:47:48.022Z,2.86
2023-05-09T00:48:55.122Z,2.92
2023-05-09T00:50:01.989Z,2.83
2023-05-09T00:51:09.133Z,2.86
2023-05-09T00:52:16.805Z,2.76
2023-05-09T00:53:25.124Z,2.85
2023-05-09T00:54:31.994Z,2.77
2023-05-09T00:55:38.952Z,2.97
2023-05-09T00:56:46.181Z,2.89
2023-05-09T00:57:52.990Z,2.97
2023-05-09T00:59:00.126Z,2.85
2023-05-09T01:00:08.345Z,2.97
2023-05-09T01:01:14.884Z,2.96
2023-05-09T01:02:25.207Z,2.81
2023-05-09T01:03:33.011Z,2.92
2023-05-09T01:04:40.009Z,2.78
2023-05-09T01:05:59.856Z,2.84
2023-05-09T01:07:13.690Z,2.97
2023-05-09T01:08:46.341Z,2.96
2023-05-09T01:10:17.735Z,2.90
2023-05-09T01:11:37.462Z,2.84
2023-05-09T01:13:01.546Z,2.78
2023-05-09T01:14:34.314Z,2.87
2023-05-09T01:15:58.827Z,2.88
2023-05-09T01:17:24.047Z,2.83
2023-05-09T01:18:39.889Z,2.78
2023-05-09T01:20:14.373Z,2.89
2023-05-09T01:21:30.517Z,2.91
2023-05-09T01:22:39.101Z,2.84
2023-05-09T01:24:02.342Z,2.93
2023-05-09T01:25:48.301Z,2.88
2023-05-09T01:27:24.869Z,2.88
2023-05-09T01:29:05.709Z,2.87
2023-05-09T01:30:15.065Z,2.93
2023-05-09T01:31:22.577Z,2.90
2023-05-09T01:32:31.181Z,2.79
2023-05-09T01:33:41.516Z,2.93
2023-05-09T01:34:49.967Z,2.93
2023-05-09T01:36:06.887Z,2.86
2023-05-09T01:37:17.452Z,2.95
2023-05-09T01:38:25.665Z,2.88
2023-05-09T01:39:34.438Z,2.90
2023-05-09T01:40:43.158Z,2.95
2023-05-09T01:41:52.009Z,2.90
2023-05-09T01:43:05.907Z,2.81
2023-05-09T01:44:14.828Z,2.87
2023-05-09T01:45:22.879Z,2.76
2023-05-09T01:46:30.685Z,2.88
2023-05-09T01:47:38.387Z,2.91
2023-05-09T01:48:46.266Z,2.90
2023-05-09T01:49:53.137Z,2.91
2023-05-09T01:51:00.889Z,2.87
2023-05-09T01:52:13.796Z,2.88
2023-05-09T01:53:20.989Z,2.95
2023-05-09T01:54:30.703Z,2.94
2023-05-09T01:55:38.618Z,2.87
2023-05-09T01:56:45.773Z,2.86
2023-05-09T01:57:54.266Z,2.76
2023-05-09T01:59:02.724Z,2.91
2023-05-09T02:00:11.545Z,2.90
2023-05-09T02:01:22.202Z,2.90
2023-05-09T02:02:29.969Z,2.95
2023-05-09T02:03:37.528Z,2.91
2023-05-09T02:04:46.320Z,3.00
2023-05-09T02:05:53.686Z,2.92
2023-05-09T02:07:01.766Z,2.94
2023-05-09T02:08:10.273Z,2.77
2023-05-09T02:09:17.798Z,2.92
2023-05-09T02:10:26.840Z,2.84
2023-05-09T02:11:35.098Z,2.84
2023-05-09T02:12:42.588Z,2.84
2023-05-09T02:13:49.375Z,2.92
2023-05-09T02:14:57.893Z,2.90
2023-05-09T02:16:06.465Z,2.88
2023-05-09T02:17:18.567Z,2.90
2023-05-09T02:18:25.621Z,2.85
2023-05-09T02:19:33.339Z,2.83
2023-05-09T02:20:41.934Z,2.75
2023-05-09T02:21:48.876Z,2.87
2023-05-09T02:22:57.000Z,2.85
2023-05-09T02:24:04.972Z,2.76
2023-05-09T02:25:16.376Z,2.79
2023-05-09T02:26:25.448Z,2.91
2023-05-09T02:27:34.332Z,2.93
2023-05-09T02:28:41.188Z,2.96
2023-05-09T02:29:50.631Z,2.87
2023-05-09T02:31:00.458Z,2.85
2023-05-09T02:32:13.384Z,2.81
2023-05-09T02:33:22.192Z,2.88
2023-05-09T02:34:29.876Z,3.02
2023-05-09T02:35:37.524Z,2.92
2023-05-09T02:36:46.233Z,2.68
2023-05-09T02:37:53.596Z,2.90
2023-05-09T02:39:01.135Z,2.98
2023-05-09T02:40:13.916Z,3.00
2023-05-09T02:41:21.826Z,2.90
2023-05-09T02:42:32.168Z,2.92
2023-05-09T02:43:40.425Z,2.92
2023-05-09T02:44:47.785Z,2.94
2023-05-09T02:45:57.734Z,3.01
2023-05-09T02:47:05.812Z,2.91
2023-05-09T02:48:14.003Z,2.93
2023-05-09T02:49:31.616Z,2.93
2023-05-09T02:50:40.921Z,2.84
2023-05-09T02:51:48.598Z,2.92
2023-05-09T02:52:56.074Z,2.84
2023-05-09T02:54:03.484Z,2.93
2023-05-09T02:55:11.643Z,2.92
2023-05-09T02:56:20.684Z,2.95
2023-05-09T02:57:28.894Z,2.76
2023-05-09T02:58:35.569Z,2.92
2023-05-09T02:59:43.695Z,2.95
2023-05-09T03:00:52.062Z,2.94
2023-05-09T03:01:59.241Z,2.88
2023-05-09T03:03:06.326Z,2.78
2023-05-09T03:04:13.997Z,2.92
2023-05-09T03:05:20.781Z,2.98
2023-05-09T03:06:27.185Z,2.87
2023-05-09T03:07:33.816Z,2.91
2023-05-09T03:08:40.432Z,2.82
2023-05-09T03:09:48.063Z,2.94
2023-05-09T03:10:55.377Z,2.93
2023-05-09T03:12:02.520Z,2.98
2023-05-09T03:13:10.422Z,2.82
2023-05-09T03:14:17.512Z,2.95
2023-05-09T03:15:26.943Z,2.95
2023-05-09T03:16:35.438Z,2.95
2023-05-09T03:17:43.573Z,2.97
2023-05-09T03:18:51.123Z,2.85
2023-05-09T03:19:59.381Z,2.91
2023-05-09T03:21:07.731Z,2.85
2023-05-09T03:22:15.733Z,2.69
2023-05-09T03:23:33.985Z,2.74
2023-05-09T03:24:43.510Z,2.96
2023-05-09T03:25:50.951Z,3.01
2023-05-09T03:26:58.292Z,2.94
2023-05-09T03:28:06.624Z,2.96
2023-05-09T03:29:13.802Z,2.94
2023-05-09T03:30:21.965Z,2.90
2023-05-09T03:31:29.515Z,2.91
2023-05-09T03:32:37.375Z,2.88
2023-05-09T03:33:44.870Z,2.88
2023-05-09T03:34:52.555Z,2.83
2023-05-09T03:36:00.259Z,2.81
2023-05-09T03:37:08.152Z,2.69
2023-05-09T03:38:19.166Z,2.94
2023-05-09T03:39:26.643Z,2.88
2023-05-09T03:40:36.459Z,2.87
2023-05-09T03:41:46.876Z,2.88
2023-05-09T03:42:54.075Z,2.89
2023-05-09T03:44:01.216Z,2.97
2023-05-09T03:45:09.422Z,2.92
2023-05-09T03:46:17.258Z,2.89
2023-05-09T03:47:26.054Z,2.99
2023-05-09T03:48:33.021Z,2.89
2023-05-09T03:49:41.056Z,2.80
2023-05-09T03:50:48.618Z,2.78
2023-05-09T03:51:55.787Z,2.81
2023-05-09T03:53:04.742Z,2.91
2023-05-09T03:54:12.070Z,2.92
2023-05-09T03:55:21.224Z,2.79
2023-05-09T03:56:29.539Z,2.79
2023-05-09T03:57:37.114Z,2.87
2023-05-09T03:58:44.860Z,2.90
2023-05-09T03:59:53.311Z,2.97
2023-05-09T04:01:00.860Z,2.94
2023-05-09T04:02:08.818Z,3.06
2023-05-09T04:03:16.164Z,2.83
2023-05-09T04:04:27.215Z,2.75
2023-05-09T04:05:36.092Z,2.78
2023-05-09T04:06:43.997Z,2.77
2023-05-09T04:07:52.045Z,2.80
2023-05-09T04:09:00.012Z,2.77
2023-05-09T04:10:11.916Z,2.73
2023-05-09T04:11:20.173Z,2.66
2023-05-09T04:12:28.476Z,2.67
2023-05-09T04:13:35.933Z,2.50
2023-05-09T04:14:48.901Z,2.42
2023-05-09T04:15:55.841Z,2.55
2023-05-09T04:17:03.024Z,2.35
2023-05-09T04:18:10.563Z,2.28
2023-05-09T04:19:18.316Z,2.37
2023-05-09T04:20:26.595Z,2.25
2023-05-09T04:21:34.823Z,2.35
2023-05-09T04:22:44.840Z,2.25
2023-05-09T04:23:53.914Z,2.08
2023-05-09T04:25:07.186Z,2.16
2023-05-09T04:26:15.625Z,2.21
2023-05-09T04:27:23.817Z,2.06
2023-05-09T04:28:32.850Z,2.07
2023-05-09T04:29:40.915Z,1.97
2023-05-09T04:30:48.192Z,2.00
2023-05-09T04:31:55.912Z,2.02
2023-05-09T04:33:04.900Z,1.90
2023-05-09T04:34:13.049Z,1.92
2023-05-09T04:35:21.370Z,1.86
2023-05-09T04:36:29.095Z,1.67
2023-05-09T04:37:37.565Z,1.83
2023-05-09T04:38:44.912Z,2.01
2023-05-09T04:39:54.541Z,1.80
2023-05-09T04:41:06.513Z,1.64
2023-05-09T04:42:13.992Z,1.82
2023-05-09T04:43:22.045Z,1.67
2023-05-09T04:44:30.226Z,1.67
2023-05-09T04:45:38.082Z,1.73
2023-05-09T04:46:45.381Z,1.64
2023-05-09T04:47:52.845Z,1.70
2023-05-09T04:49:00.814Z,1.47
2023-05-09T04:50:09.438Z,1.53
2023-05-09T04:51:16.942Z,1.43
2023-05-09T04:52:26.400Z,1.51
2023-05-09T04:53:35.787Z,1.32
2023-05-09T04:54:44.234Z,1.43
2023-05-09T04:55:51.564Z,1.44
2023-05-09T04:57:09.975Z,1.40
2023-05-09T04:58:22.061Z,1.39
2023-05-09T04:59:30.543Z,1.35
2023-05-09T05:00:38.475Z,1.34
2023-05-09T05:01:47.823Z,1.29
2023-05-09T05:02:55.122Z,1.26
2023-05-09T05:04:03.872Z,1.21
2023-05-09T05:05:13.313Z,1.22
2023-05-09T05:06:22.456Z,1.31
2023-05-09T05:07:30.517Z,1.23
2023-05-09T05:08:38.406Z,1.19
2023-05-09T05:09:45.878Z,1.31
2023-05-09T05:10:53.293Z,1.11
2023-05-09T05:12:02.933Z,1.25
2023-05-09T05:13:12.017Z,1.19
2023-05-09T05:14:20.928Z,1.15
2023-05-09T05:15:31.501Z,1.11
2023-05-09T05:16:39.272Z,1.08
2023-05-09T05:17:47.189Z,1.19
2023-05-09T05:18:56.592Z,1.02
2023-05-09T05:20:04.429Z,0.92
2023-05-09T05:21:11.598Z,1.04
2023-05-09T05:22:19.087Z,0.97
2023-05-09T05:23:27.243Z,0.96
2023-05-09T05:24:35.140Z,0.93
2023-05-09T05:25:42.617Z,0.88
2023-05-09T05:26:50.285Z,0.92
2023-05-09T05:27:58.495Z,0.87
2023-05-09T05:29:06.722Z,0.82
2023-05-09T05:30:17.072Z,0.89
2023-05-09T05:31:25.282Z,0.84
2023-05-09T05:32:32.632Z,0.74
2023-05-09T05:33:40.897Z,0.93
2023-05-09T05:34:48.850Z,0.88
2023-05-09T05:35:56.934Z,0.84
2023-05-09T05:37:04.717Z,0.77
2023-05-09T05:38:12.334Z,0.83
2023-05-09T05:39:19.898Z,0.86
2023-05-09T05:40:27.475Z,0.90
2023-05-09T05:41:35.658Z,0.87
2023-05-09T05:42:45.546Z,0.90
2023-05-09T05:43:54.523Z,0.84
2023-05-09T05:45:05.891Z,0.77
2023-05-09T05:46:16.106Z,0.69
2023-05-09T05:47:23.647Z,0.72
2023-05-09T05:48:32.242Z,0.81
2023-05-09T05:49:39.776Z,0.76
2023-05-09T05:50:47.987Z,0.69
2023-05-09T05:51:57.905Z,0.80
2023-05-09T05:53:06.958Z,0.60
2023-05-09T05:54:14.855Z,0.66
2023-05-09T05:55:22.091Z,0.76
2023-05-09T05:56:30.586Z,0.82
2023-05-09T05:57:39.269Z,0.66
2023-05-09T05:58:48.140Z,0.61
2023-05-09T05:59:57.495Z,0.62
2023-05-09T06:01:05.099Z,0.58
2023-05-09T06:02:12.317Z,0.45
2023-05-09T06:03:19.765Z,0.57
2023-05-09T06:04:41.054Z,0.56
2023-05-09T06:05:50.148Z,0.51
2023-05-09T06:06:58.622Z,0.48
2023-05-09T06:08:06.076Z,0.43
2023-05-09T06:09:14.058Z,0.43
2023-05-09T06:10:21.431Z,0.54
2023-05-09T06:11:29.661Z,0.43
2023-05-09T06:12:39.504Z,0.36
2023-05-09T06:13:47.340Z,0.37
2023-05-09T06:14:55.253Z,0.35
2023-05-09T06:16:15.210Z,0.31
2023-05-09T06:17:28.098Z,0.39
2023-05-09T06:18:37.641Z,0.32
2023-05-09T06:19:46.500Z,0.32
2023-05-09T06:20:56.332Z,0.44
2023-05-09T06:22:05.307Z,0.44
2023-05-09T06:23:12.278Z,0.38
2023-05-09T06:24:31.889Z,0.37
2023-05-09T06:25:43.474Z,0.37
2023-05-09T06:26:54.857Z,0.32
2023-05-09T06:28:02.202Z,0.41
2023-05-09T06:29:09.120Z,0.47
2023-05-09T06:30:25.363Z,0.39
2023-05-09T06:31:37.337Z,0.29
2023-05-09T06:32:45.710Z,0.24
2023-05-09T06:33:52.565Z,0.27
2023-05-09T06:35:00.527Z,0.22
2023-05-09T06:36:07.700Z,0.41
2023-05-09T06:37:15.091Z,0.27
2023-05-09T06:38:22.715Z,0.20
2023-05-09T06:39:30.450Z,0.24
2023-05-09T06:40:38.938Z,0.26
2023-05-09T06:41:46.533Z,0.25
2023-05-09T06:42:59.843Z,0.19
2023-05-09T06:44:08.275Z,0.17
2023-05-09T06:45:15.058Z,0.20
2023-05-09T06:46:22.684Z,0.19
2023-05-09T06:47:30.097Z,0.20
2023-05-09T06:48:37.280Z,0.18
2023-05-09T06:49:44.202Z,0.24
2023-05-09T06:50:51.664Z,0.18
2023-05-09T06:51:58.813Z,0.14
2023-05-09T06:53:05.814Z,0.15
2023-05-09T06:54:12.891Z,0.14
2023-05-09T06:55:19.749Z,0.11
2023-05-09T06:56:28.103Z,0.22
2023-05-09T06:57:35.243Z,0.20
2023-05-09T06:58:42.742Z,0.12
2023-05-09T06:59:49.967Z,0.07
2023-05-09T07:00:57.781Z,0.17
2023-05-09T07:02:04.388Z,0.17
2023-05-09T07:03:14.851Z,0.14
2023-05-09T07:04:21.470Z,0.16
2023-05-09T07:05:28.283Z,0.08
2023-05-09T07:06:35.972Z,0.15
2023-05-09T07:07:43.081Z,0.23
2023-05-09T07:08:50.505Z,0.05
2023-05-09T07:10:07.318Z,0.08
2023-05-09T07:11:17.955Z,0.07
2023-05-09T07:12:28.034Z,0.12
2023-05-09T07:13:34.850Z,0.12
2023-05-09T07:14:42.992Z,0.10
2023-05-09T07:15:50.295Z,0.05
2023-05-09T07:17:13.761Z,0.11
2023-05-09T07:18:25.554Z,0.07
2023-05-09T07:19:33.324Z,0.08
2023-05-09T07:20:41.594Z,0.04
2023-05-09T07:21:49.231Z,0.06
2023-05-09T07:22:56.781Z,0.04
2023-05-09T07:24:03.706Z,0.07
2023-05-09T07:25:11.873Z,0.02
2023-05-09T07:26:18.577Z,0.03
2023-05-09T07:27:26.267Z,0.04
2023-05-09T07:28:33.238Z,0.02
2023-05-09T07:29:40.330Z,0.05
2023-05-09T07:30:52.789Z,0.03
2023-05-09T07:32:01.214Z,0.08
2023-05-09T07:33:09.440Z,0.04
2023-05-09T07:34:18.411Z,0.04
2023-05-09T07:35:26.565Z,0.10
2023-05-09T07:36:35.474Z,0.15
2023-05-09T07:37:42.628Z,0.12
2023-05-09T07:38:52.401Z,0.04
2023-05-09T07:39:59.092Z,0.02
2023-05-09T07:41:06.105Z,0.04
2023-05-09T07:42:13.520Z,0.02
2023-05-09T07:43:20.420Z,0.09
2023-05-09T07:44:27.105Z,0.13
2023-05-09T07:45:35.200Z,0.06
2023-05-09T07:46:43.621Z,0.00
2023-05-09T07:47:51.719Z,0.00
2023-05-09T07:48:58.592Z,0.00
2023-05-09T07:50:07.031Z,0.00
2023-05-09T07:51:14.329Z,0.04
2023-05-09T07:52:21.522Z,0.07
2023-05-09T07:53:28.741Z,0.00
2023-05-09T07:54:36.677Z,0.03
2023-05-09T07:55:46.653Z,0.00
2023-05-09T07:56:54.303Z,0.05
2023-05-09T07:58:02.423Z,0.00
2023-05-09T07:59:09.971Z,0.00
2023-05-09T08:00:18.119Z,0.01
2023-05-09T08:01:28.221Z,0.00
2023-05-09T08:02:35.514Z,0.00
2023-05-09T08:03:42.837Z,0.00
2023-05-09T08:04:53.614Z,0.00
2023-05-09T08:06:01.313Z,0.02
2023-05-09T08:07:10.523Z,0.04
2023-05-09T08:08:16.832Z,0.00
2023-05-09T08:09:24.695Z,0.02
2023-05-09T08:10:33.379Z,0.01
2023-05-09T08:11:41.240Z,0.01
2023-05-09T08:12:48.128Z,0.04
2023-05-09T08:13:55.380Z,0.03
2023-05-09T08:15:02.916Z,0.02
2023-05-09T08:16:10.380Z,0.02
2023-05-09T08:17:17.842Z,0.03
2023-05-09T08:18:24.660Z,0.00
2023-05-09T08:19:32.057Z,0.01
2023-05-09T08:20:39.024Z,0.01
2023-05-09T08:21:45.905Z,0.00
2023-05-09T08:22:52.703Z,0.00
2023-05-09T08:24:00.066Z,0.00
2023-05-09T08:25:08.778Z,0.02
2023-05-09T08:26:16.097Z,0.00
2023-05-09T08:27:23.089Z,0.00
2023-05-09T08:28:29.861Z,0.00
2023-05-09T08:29:37.037Z,0.00
2023-05-09T08:30:43.686Z,0.00
2023-05-09T08:31:50.587Z,0.00
2023-05-09T08:32:58.189Z,0.00
2023-05-09T08:34:05.034Z,0.00
2023-05-09T08:35:12.094Z,0.00
2023-05-09T08:36:18.706Z,0.02
2023-05-09T08:37:25.246Z,0.01
2023-05-09T08:38:32.089Z,0.00
2023-05-09T08:39:38.861Z,0.00
2023-05-09T08:40:49.611Z,0.03
2023-05-09T08:42:03.130Z,0.00
2023-05-09T08:43:13.176Z,0.00
2023-05-09T08:44:19.638Z,0.00
2023-05-09T08:45:28.750Z,0.00
2023-05-09T08:46:41.887Z,0.00
2023-05-09T08:47:52.694Z,0.00
2023-05-09T08:49:00.455Z,0.02
2023-05-09T08:50:07.845Z,0.00
2023-05-09T08:51:15.203Z,0.00
2023-05-09T08:52:22.594Z,0.01
2023-05-09T08:53:30.051Z,0.00
2023-05-09T08:54:36.921Z,0.00
2023-05-09T08:55:44.042Z,0.00
2023-05-09T08:56:52.716Z,0.00
2023-05-09T08:58:01.384Z,0.00
2023-05-09T08:59:09.454Z,0.00
2023-05-09T09:00:18.646Z,0.00
2023-05-09T09:01:28.406Z,0.00
2023-05-09T09:02:36.609Z,0.00
2023-05-09T09:03:48.707Z,0.01
2023-05-09T09:04:57.486Z,0.00
2023-05-09T09:06:04.108Z,0.00
2023-05-09T09:07:11.000Z,0.02
2023-05-09T09:08:18.460Z,0.00
2023-05-09T09:09:25.985Z,0.00
2023-05-09T09:10:33.842Z,0.00
2023-05-09T09:11:41.536Z,0.00
2023-05-09T09:12:50.245Z,0.00
2023-05-09T09:13:58.044Z,0.00
2023-05-09T09:15:07.103Z,0.00
2023-05-09T09:16:16.556Z,0.01
2023-05-09T09:17:26.918Z,0.01
2023-05-09T09:18:34.876Z,0.00
2023-05-09T09:19:42.633Z,0.00
2023-05-09T09:21:08.129Z,0.00
2023-05-09T09:22:17.108Z,0.00
2023-05-09T09:23:23.709Z,0.00
2023-05-09T09:24:30.285Z,0.00
2023-05-09T09:25:37.300Z,0.00
2023-05-09T09:26:48.722Z,0.00
2023-05-09T09:27:55.362Z,0.00
2023-05-09T09:29:02.124Z,0.00
2023-05-09T09:30:12.883Z,0.00
2023-05-09T09:31:23.633Z,0.00
2023-05-09T09:32:37.117Z,0.00
2023-05-09T09:33:43.973Z,0.00
2023-05-09T09:34:53.775Z,0.00
2023-05-09T09:36:01.431Z,0.00
2023-05-09T09:37:10.050Z,0.00
2023-05-09T09:38:17.947Z,0.00
2023-05-09T09:39:26.347Z,0.00
2023-05-09T09:40:34.003Z,0.00
2023-05-09T09:41:41.533Z,0.00
2023-05-09T09:42:50.492Z,0.00
2023-05-09T09:43:59.637Z,0.00
2023-05-09T09:45:15.593Z,0.00
2023-05-09T09:46:22.607Z,0.00
2023-05-09T09:47:34.160Z,0.00
2023-05-09T09:48:47.099Z,0.00
2023-05-09T09:49:55.223Z,0.00
2023-05-09T09:51:13.237Z,0.00
2023-05-09T09:52:26.795Z,0.00
2023-05-09T09:53:41.630Z,0.00
2023-05-09T09:54:49.512Z,0.00
2023-05-09T09:55:57.450Z,0.00
2023-05-09T09:57:04.282Z,0.00
2023-05-09T09:58:20.801Z,0.00
2023-05-09T09:59:28.848Z,0.00
2023-05-09T10:00:36.493Z,0.00
2023-05-09T10:02:07.633Z,0.00
2023-05-09T10:03:21.527Z,0.00
2023-05-09T10:04:30.540Z,0.00
2023-05-09T10:05:40.178Z,0.00
2023-05-09T10:07:01.932Z,0.00
2023-05-09T10:08:11.366Z,0.00
2023-05-09T10:09:18.395Z,0.00
2023-05-09T10:10:27.379Z,0.00
2023-05-09T10:11:35.137Z,0.00
2023-05-09T10:12:43.127Z,0.00
2023-05-09T10:13:50.600Z,0.00
2023-05-09T10:14:59.030Z,0.00
2023-05-09T10:16:06.377Z,0.00
2023-05-09T10:17:15.640Z,0.00
2023-05-09T10:18:26.729Z,0.00
2023-05-09T10:19:34.674Z,0.00
2023-05-09T10:20:42.485Z,0.00
2023-05-09T10:21:54.307Z,0.00
2023-05-09T10:23:03.847Z,0.00
2023-05-09T10:24:12.366Z,0.00
2023-05-09T10:25:23.369Z,0.00
2023-05-09T10:26:32.159Z,0.00
2023-05-09T10:27:38.999Z,0.00
2023-05-09T10:28:47.850Z,0.00
2023-05-09T10:30:06.414Z,0.00
2023-05-09T10:31:24.922Z,0.00
2023-05-09T10:32:53.566Z,0.00
2023-05-09T10:34:03.700Z,0.00
2023-05-09T10:35:12.220Z,0.00
2023-05-09T10:36:23.406Z,0.00
2023-05-09T10:37:33.751Z,0.00
2023-05-09T10:38:40.934Z,0.00
2023-05-09T10:39:47.928Z,0.00
2023-05-09T10:40:55.282Z,0.00
2023-05-09T10:42:02.077Z,0.00
2023-05-09T10:43:10.166Z,0.00
2023-05-09T10:44:17.098Z,0.00
2023-05-09T10:45:24.081Z,0.00
2023-05-09T10:46:31.690Z,0.00
2023-05-09T10:47:38.960Z,0.00
2023-05-09T10:48:46.063Z,0.00
2023-05-09T10:49:53.152Z,0.00
2023-05-09T10:51:01.075Z,0.01
2023-05-09T10:52:08.273Z,0.01
2023-05-09T10:53:17.736Z,0.00
2023-05-09T10:54:31.389Z,0.00
2023-05-09T10:55:53.162Z,0.00
2023-05-09T10:57:02.097Z,0.00
2023-05-09T10:58:31.863Z,0.00
2023-05-09T10:59:45.453Z,0.00
2023-05-09T11:00:53.483Z,0.00
2023-05-09T11:02:03.016Z,0.00
2023-05-09T11:03:11.076Z,0.00
2023-05-09T11:04:19.309Z,0.00
2023-05-09T11:05:25.898Z,0.00
2023-05-09T11:06:56.479Z,0.00
2023-05-09T11:08:26.713Z,0.00
2023-05-09T11:09:42.470Z,0.00
2023-05-09T11:10:49.146Z,0.00
2023-05-09T11:12:00.916Z,0.00
2023-05-09T11:13:07.981Z,0.00
2023-05-09T11:14:31.567Z,0.00
2023-05-09T11:15:38.977Z,0.00
2023-05-09T11:17:07.918Z,0.00
2023-05-09T11:18:15.535Z,0.00
2023-05-09T11:19:55.639Z,0.00
2023-05-09T11:21:12.723Z,0.00
2023-05-09T11:22:32.010Z,0.00
2023-05-09T11:23:40.578Z,0.00
2023-05-09T11:24:53.476Z,0.00
2023-05-09T11:26:08.400Z,0.00
2023-05-09T11:27:30.316Z,0.00
2023-05-09T11:28:39.158Z,0.00
2023-05-09T11:29:56.897Z,0.00
2023-05-09T11:31:18.896Z,0.00
2023-05-09T11:32:33.741Z,0.00
2023-05-09T11:33:40.737Z,0.00
2023-05-09T11:34:47.309Z,0.00
2023-05-09T11:36:21.378Z,0.00
2023-05-09T11:37:28.420Z,0.00
2023-05-09T11:38:45.964Z,0.00
2023-05-09T11:40:01.604Z,0.01
2023-05-09T11:41:08.174Z,0.00
2023-05-09T11:42:15.662Z,0.00
2023-05-09T11:43:22.294Z,0.01
2023-05-09T11:44:29.704Z,0.08
2023-05-09T11:45:36.453Z,0.09
2023-05-09T11:46:44.304Z,0.16
2023-05-09T11:47:53.402Z,0.18
2023-05-09T11:49:01.576Z,0.18
2023-05-09T11:50:13.544Z,0.22
2023-05-09T11:51:20.441Z,0.24
2023-05-09T11:52:27.778Z,0.25
2023-05-09T11:53:35.480Z,0.36
2023-05-09T11:54:43.069Z,0.35
2023-05-09T11:55:52.137Z,0.42
2023-05-09T11:57:01.856Z,0.48
2023-05-09T11:58:09.404Z,0.56
2023-05-09T11:59:17.225Z,0.54
2023-05-09T12:00:26.098Z,0.56
2023-05-09T12:01:33.939Z,0.63
2023-05-09T12:02:40.971Z,0.58
2023-05-09T12:03:48.816Z,0.64
2023-05-09T12:04:57.848Z,0.74
2023-05-09T12:06:05.895Z,0.81
2023-05-09T12:07:15.156Z,0.80
2023-05-09T12:08:21.591Z,0.68
2023-05-09T12:09:34.685Z,0.81
2023-05-09T12:10:42.292Z,0.81
2023-05-09T12:11:52.249Z,0.93
2023-05-09T12:12:59.205Z,0.92
2023-05-09T12:14:07.144Z,0.93
2023-05-09T12:15:15.250Z,0.85
2023-05-09T12:16:23.383Z,0.93
2023-05-09T12:17:31.847Z,0.98
2023-05-09T12:18:39.024Z,1.02
2023-05-09T12:19:47.504Z,0.96
2023-05-09T12:20:54.434Z,1.13
2023-05-09T12:22:02.642Z,1.10
2023-05-09T12:23:11.149Z,1.09
2023-05-09T12:24:23.168Z,1.13
2023-05-09T12:25:30.909Z,1.15
2023-05-09T12:26:38.430Z,1.22
2023-05-09T12:27:46.541Z,1.25
2023-05-09T12:28:55.320Z,1.25
2023-05-09T12:30:04.287Z,1.25
2023-05-09T12:31:11.017Z,1.36
2023-05-09T12:32:18.174Z,1.30
2023-05-09T12:33:26.067Z,1.26
2023-05-09T12:34:33.591Z,1.35
2023-05-09T12:35:42.441Z,1.43
2023-05-09T12:36:52.580Z,1.41
2023-05-09T12:38:04.121Z,1.38
2023-05-09T12:39:12.672Z,1.41
2023-05-09T12:40:19.760Z,1.48
2023-05-09T12:42:38.935Z,1.49
2023-05-09T12:43:50.308Z,1.57
2023-05-09T12:44:58.542Z,1.45
2023-05-09T12:46:06.087Z,1.58
2023-05-09T12:47:12.879Z,1.56
2023-05-09T12:48:20.215Z,1.43
2023-05-09T12:49:27.992Z,1.57
2023-05-09T12:50:37.500Z,1.57
2023-05-09T12:51:51.935Z,1.59
2023-05-09T12:53:03.370Z,1.67
2023-05-09T12:54:14.032Z,1.56
2023-05-09T12:55:21.796Z,1.70
2023-05-09T12:56:29.693Z,1.69
2023-05-09T12:57:37.021Z,1.59
2023-05-09T12:58:53.473Z,1.65
2023-05-09T13:00:01.968Z,1.71
2023-05-09T13:01:09.200Z,1.68
2023-05-09T13:02:16.000Z,1.71
2023-05-09T13:03:27.892Z,1.74
2023-05-09T13:04:35.194Z,1.78
2023-05-09T13:05:42.640Z,1.80
2023-05-09T13:06:57.148Z,1.77
2023-05-09T13:08:04.950Z,1.73
2023-05-09T13:09:15.035Z,1.81
2023-05-09T13:10:29.612Z,1.83
2023-05-09T13:11:39.367Z,1.87
2023-05-09T13:12:46.930Z,1.86
2023-05-09T13:13:53.922Z,1.93
2023-05-09T13:15:00.965Z,1.88
2023-05-09T13:16:10.056Z,1.95
2023-05-09T13:17:17.762Z,1.91
2023-05-09T13:18:25.865Z,1.84
2023-05-09T13:19:32.765Z,2.02
2023-05-09T13:20:39.907Z,1.86
2023-05-09T13:21:48.733Z,1.73
2023-05-09T13:22:57.209Z,1.84
2023-05-09T13:24:06.028Z,1.87
2023-05-09T13:25:13.485Z,1.87
2023-05-09T13:26:20.875Z,1.92
2023-05-09T13:27:29.197Z,2.05
2023-05-09T13:28:36.857Z,2.02
2023-05-09T13:29:45.322Z,1.93
2023-05-09T13:30:53.051Z,2.00
2023-05-09T13:32:01.615Z,1.98
2023-05-09T13:33:24.497Z,2.06
2023-05-09T13:34:33.146Z,2.11
2023-05-09T13:35:39.807Z,2.01
2023-05-09T13:36:46.836Z,2.05
2023-05-09T13:38:01.536Z,2.14
2023-05-09T13:39:08.500Z,2.07
2023-05-09T13:40:16.936Z,2.00
2023-05-09T13:41:26.108Z,2.04
2023-05-09T13:42:35.460Z,2.10
2023-05-09T13:43:43.839Z,1.99
2023-05-09T13:44:51.171Z,2.03
2023-05-09T13:45:58.883Z,2.12
2023-05-09T13:47:06.085Z,2.17
2023-05-09T13:48:13.032Z,2.14
2023-05-09T13:49:20.873Z,2.03
2023-05-09T13:50:28.320Z,2.14
2023-05-09T13:51:35.905Z,2.22
2023-05-09T13:52:43.212Z,2.08
2023-05-09T13:53:50.670Z,2.12
2023-05-09T13:54:59.048Z,2.23
2023-05-09T13:56:07.906Z,2.20
2023-05-09T13:57:14.207Z,2.28
2023-05-09T13:58:21.044Z,2.26
2023-05-09T13:59:29.959Z,2.14
2023-05-09T14:00:38.416Z,2.13
2023-05-09T14:01:46.121Z,2.28
2023-05-09T14:02:55.000Z,2.22
2023-05-09T14:04:02.174Z,2.23
2023-05-09T14:05:10.875Z,2.12
2023-05-09T14:06:18.387Z,2.23
2023-05-09T14:07:25.090Z,2.14
2023-05-09T14:08:31.997Z,2.17
2023-05-09T14:09:42.008Z,2.23
2023-05-09T14:10:49.924Z,2.29
2023-05-09T14:11:57.804Z,2.37
2023-05-09T14:13:04.874Z,2.31
2023-05-09T14:14:11.733Z,2.36
2023-05-09T14:15:18.418Z,2.19
2023-05-09T14:16:25.445Z,2.20
2023-05-09T14:17:36.455Z,2.32
2023-05-09T14:18:44.571Z,2.31
2023-05-09T14:19:51.148Z,2.31
2023-05-09T14:20:57.790Z,2.34
2023-05-09T14:22:05.584Z,2.24
2023-05-09T14:23:12.582Z,2.34
2023-05-09T14:24:19.435Z,2.35
2023-05-09T14:25:27.653Z,2.30
2023-05-09T14:26:34.453Z,2.23
2023-05-09T14:27:41.319Z,2.30
2023-05-09T14:28:47.839Z,2.26
2023-05-09T14:29:55.333Z,2.22
2023-05-09T14:31:02.704Z,2.27
2023-05-09T14:32:13.790Z,2.56
2023-05-09T14:33:20.375Z,2.39
2023-05-09T14:34:28.417Z,2.42
2023-05-09T14:35:35.706Z,2.39
2023-05-09T14:36:43.801Z,2.42
2023-05-09T14:37:50.969Z,2.41
2023-05-09T14:38:59.472Z,2.28
2023-05-09T14:40:07.781Z,2.40
2023-05-09T14:41:16.832Z,2.35
2023-05-09T14:42:23.832Z,2.32
2023-05-09T14:43:31.429Z,2.47
2023-05-09T14:44:40.214Z,2.42
2023-05-09T14:45:47.660Z,2.38
2023-05-09T14:46:55.237Z,2.39
2023-05-09T14:48:03.078Z,2.41
2023-05-09T14:49:10.366Z,2.50
2023-05-09T14:50:17.565Z,2.40
2023-05-09T14:51:24.341Z,2.48
2023-05-09T14:52:31.011Z,2.39
2023-05-09T14:53:41.989Z,2.38
2023-05-09T14:54:48.762Z,2.45
2023-05-09T14:55:57.256Z,2.42
2023-05-09T14:57:06.073Z,2.45
2023-05-09T14:58:15.184Z,2.49
2023-05-09T14:59:22.196Z,2.53
2023-05-09T15:00:30.599Z,2.49
2023-05-09T15:01:39.152Z,2.56
2023-05-09T15:02:46.311Z,2.46
2023-05-09T15:03:54.164Z,2.44
2023-05-09T15:05:01.960Z,2.52
2023-05-09T15:06:09.543Z,2.45
2023-05-09T15:07:20.796Z,2.54
2023-05-09T15:08:29.281Z,2.59
2023-05-09T15:09:37.402Z,2.57
2023-05-09T15:10:45.298Z,2.52
2023-05-09T15:11:53.497Z,2.43
2023-05-09T15:13:03.719Z,2.49
2023-05-09T15:14:12.296Z,2.43
2023-05-09T15:15:21.210Z,2.50
2023-05-09T15:16:29.233Z,2.48
2023-05-09T15:17:37.472Z,2.42
2023-05-09T15:18:46.992Z,2.40
2023-05-09T15:19:55.302Z,2.50
2023-05-09T15:21:03.786Z,2.74
2023-05-09T15:22:10.884Z,3.03
2023-05-09T15:23:18.686Z,3.36